createdAt,value
2023-06-03T00:04:43.140Z,13.90
2023-06-03T00:09:41.624Z,13.70
2023-06-03T00:14:41.175Z,13.60
2023-06-03T00:19:39.665Z,13.60
2023-06-03T00:24:37.941Z,13.60
2023-06-03T00:29:36.246Z,13.60
2023-06-03T00:34:35.681Z,13.60
2023-06-03T00:39:34.141Z,13.50
2023-06-03T00:44:32.293Z,13.50
2023-06-03T00:49:31.027Z,13.40
2023-06-03T00:54:30.837Z,13.40
2023-06-03T00:59:29.132Z,13.30
2023-06-03T01:04:29.630Z,13.30
2023-06-03T01:09:38.618Z,13.20
2023-06-03T01:14:43.306Z,13.10
2023-06-03T01:19:49.298Z,13.10
2023-06-03T01:24:51.365Z,13.00
2023-06-03T01:29:49.804Z,13.20
2023-06-03T01:34:48.596Z,13.00
2023-06-03T01:39:48.711Z,12.90
2023-06-03T01:44:47.767Z,12.90
2023-06-03T01:49:47.088Z,12.80
2023-06-03T01:54:49.248Z,12.70
2023-06-03T01:59:47.393Z,12.70
2023-06-03T02:04:46.322Z,12.70
2023-06-03T02:09:44.643Z,12.60
2023-06-03T02:14:44.340Z,12.60
2023-06-03T02:19:42.393Z,12.50
2023-06-03T02:24:40.858Z,12.50
2023-06-03T02:29:39.140Z,12.50
2023-06-03T02:34:38.872Z,12.40
2023-06-03T02:39:37.290Z,12.40
2023-06-03T02:44:37.450Z,12.40
2023-06-03T02:49:38.686Z,12.30
2023-06-03T02:54:38.663Z,12.30
2023-06-03T02:59:37.395Z,12.30
2023-06-03T03:04:37.758Z,12.30
2023-06-03T03:09:37.673Z,12.20
2023-06-03T03:14:37.476Z,12.40
2023-06-03T03:19:36.751Z,12.20
2023-06-03T03:24:37.295Z,12.20
2023-06-03T03:29:36.686Z,12.20
2023-06-03T03:34:40.034Z,12.20
2023-06-03T03:39:41.281Z,12.20
2023-06-03T03:44:39.944Z,12.30
2023-06-03T03:49:41.157Z,12.30
2023-06-03T03:54:44.652Z,12.20
2023-06-03T03:59:46.270Z,12.20
2023-06-03T04:04:46.736Z,12.30
2023-06-03T04:15:03.878Z,12.30
2023-06-03T04:20:08.904Z,12.30
2023-06-03T04:25:10.177Z,12.30
2023-06-03T04:30:31.070Z,12.30
2023-06-03T04:35:29.279Z,12.40
2023-06-03T04:40:29.435Z,12.40
2023-06-03T04:45:28.412Z,12.40
2023-06-03T04:50:36.975Z,12.50
2023-06-03T04:55:39.072Z,12.50
2023-06-03T05:00:37.974Z,12.70
2023-06-03T05:05:44.763Z,12.90
2023-06-03T05:10:47.074Z,13.10
2023-06-03T05:15:45.696Z,13.20
2023-06-03T05:20:46.307Z,13.20
2023-06-03T05:25:47.595Z,13.20
2023-06-03T05:30:46.498Z,13.20
2023-06-03T05:35:45.036Z,13.40
2023-06-03T05:40:45.022Z,13.80
2023-06-03T05:45:44.974Z,13.90
2023-06-03T05:50:50.648Z,14.00
2023-06-03T05:55:49.310Z,14.10
2023-06-03T06:00:49.308Z,14.30
2023-06-03T06:05:48.331Z,14.20
2023-06-03T06:10:46.783Z,14.20
2023-06-03T06:15:59.862Z,14.20
2023-06-03T06:20:59.028Z,14.60
2023-06-03T06:25:57.937Z,14.80
2023-06-03T06:31:07.957Z,15.10
2023-06-03T06:36:32.088Z,15.40
2023-06-03T06:41:39.752Z,15.70
2023-06-03T06:46:50.920Z,16.00
2023-06-03T06:51:51.922Z,16.00
2023-06-03T06:56:50.497Z,16.00
2023-06-03T07:01:50.382Z,16.00
2023-06-03T07:06:48.808Z,16.00
2023-06-03T07:11:48.906Z,16.30
2023-06-03T07:16:51.294Z,16.50
2023-06-03T07:21:53.259Z,16.60
2023-06-03T07:26:52.292Z,16.80
2023-06-03T07:31:52.470Z,17.10
2023-06-03T07:36:53.477Z,17.40
2023-06-03T07:41:53.612Z,17.90
2023-06-03T07:47:00.041Z,18.20
2023-06-03T07:51:59.755Z,18.20
2023-06-03T07:56:58.483Z,18.20
2023-06-03T08:02:01.840Z,18.30
2023-06-03T08:07:02.064Z,18.70
2023-06-03T08:12:02.478Z,18.90
2023-06-03T08:17:05.999Z,19.10
2023-06-03T08:22:05.795Z,19.10
2023-06-03T08:27:04.140Z,19.10
2023-06-03T08:32:03.939Z,19.50
2023-06-03T08:37:02.232Z,19.90
2023-06-03T08:42:06.602Z,20.00
2023-06-03T08:47:14.246Z,20.10
2023-06-03T08:52:12.569Z,20.30
2023-06-03T08:57:20.765Z,20.40
2023-06-03T09:02:20.875Z,20.50
2023-06-03T09:07:20.409Z,20.90
2023-06-03T09:12:18.817Z,21.00
2023-06-03T09:17:17.442Z,21.40
2023-06-03T09:22:18.175Z,21.50
2023-06-03T09:27:18.047Z,21.80
2023-06-03T09:32:16.379Z,22.00
2023-06-03T09:37:16.456Z,22.40
2023-06-03T09:42:14.756Z,22.40
2023-06-03T09:47:13.343Z,22.60
2023-06-03T09:52:13.492Z,22.70
2023-06-03T09:57:14.959Z,23.40
2023-06-03T10:02:14.018Z,23.90
2023-06-03T10:07:14.390Z,24.40
2023-06-03T10:12:14.531Z,24.60
2023-06-03T10:17:14.017Z,24.80
2023-06-03T10:22:14.190Z,25.40
2023-06-03T10:27:14.904Z,25.80
2023-06-03T10:32:15.770Z,25.80
2023-06-03T10:37:17.797Z,25.80
2023-06-03T10:42:17.440Z,25.50
2023-06-03T10:47:24.067Z,25.30
2023-06-03T10:52:40.756Z,25.40
2023-06-03T10:57:46.261Z,25.60
2023-06-03T11:03:07.874Z,25.60
2023-06-03T11:08:06.051Z,25.50
2023-06-03T11:13:06.474Z,25.50
2023-06-03T11:18:17.811Z,25.70
2023-06-03T11:23:44.986Z,25.90
2023-06-03T11:28:44.708Z,26.30
2023-06-03T11:34:03.004Z,26.30
2023-06-03T11:39:02.289Z,26.40
2023-06-03T11:49:25.099Z,26.90
2023-06-03T11:54:23.411Z,26.60
2023-06-03T11:59:26.170Z,26.50
2023-06-03T12:04:24.298Z,26.60
2023-06-03T12:09:24.535Z,26.30
2023-06-03T12:14:35.052Z,25.60
2023-06-03T12:19:33.124Z,25.20
2023-06-03T12:24:33.633Z,25.10
2023-06-03T12:29:34.822Z,24.80
2023-06-03T12:34:35.667Z,25.00
2023-06-03T12:39:45.232Z,25.10
2023-06-03T12:44:46.376Z,25.30
2023-06-03T12:49:45.029Z,25.60
2023-06-03T12:54:44.035Z,25.80
2023-06-03T13:00:08.418Z,26.00
2023-06-03T13:05:08.315Z,25.70
2023-06-03T13:10:08.922Z,25.60
2023-06-03T13:15:09.949Z,25.40
2023-06-03T13:20:09.606Z,25.60
2023-06-03T13:25:08.482Z,25.70
2023-06-03T13:30:09.692Z,25.80
2023-06-03T13:35:08.690Z,25.40
2023-06-03T13:40:08.746Z,25.60
2023-06-03T13:45:09.587Z,25.70
2023-06-03T13:50:08.880Z,25.20
2023-06-03T13:55:08.634Z,24.80
2023-06-03T14:00:09.713Z,24.90
2023-06-03T14:05:09.569Z,25.30
2023-06-03T14:10:10.298Z,25.50
2023-06-03T14:15:11.238Z,25.50
2023-06-03T14:20:09.971Z,25.70
2023-06-03T14:25:08.732Z,26.00
2023-06-03T14:30:09.929Z,26.30
2023-06-03T14:35:09.686Z,26.40
2023-06-03T14:40:08.659Z,26.60
2023-06-03T14:45:12.075Z,26.60
2023-06-03T14:50:11.116Z,26.30
2023-06-03T14:55:10.427Z,26.30
2023-06-03T15:00:10.106Z,26.40
2023-06-03T15:05:10.113Z,26.80
2023-06-03T15:10:09.846Z,26.80
2023-06-03T15:15:09.076Z,26.90
2023-06-03T15:20:10.659Z,26.90
2023-06-03T15:25:09.238Z,26.80
2023-06-03T15:30:09.371Z,26.70
2023-06-03T15:35:09.300Z,26.70
2023-06-03T15:40:09.211Z,26.30
2023-06-03T15:45:08.750Z,26.30
2023-06-03T15:50:09.643Z,26.30
2023-06-03T15:55:08.921Z,26.40
2023-06-03T16:00:08.459Z,26.30
2023-06-03T16:05:07.699Z,26.30
2023-06-03T16:10:08.050Z,26.30
2023-06-03T16:15:07.319Z,26.20
2023-06-03T16:20:06.330Z,25.90
2023-06-03T16:25:07.309Z,25.60
2023-06-03T16:30:06.732Z,25.50
2023-06-03T16:35:05.309Z,25.30
2023-06-03T16:40:03.672Z,25.40
2023-06-03T16:45:03.061Z,25.40
2023-06-03T16:50:01.565Z,25.30
2023-06-03T16:54:59.852Z,25.20
2023-06-03T16:59:58.237Z,25.10
2023-06-03T17:04:58.275Z,25.00
2023-06-03T17:09:56.389Z,24.80
2023-06-03T17:14:56.027Z,24.60
2023-06-03T17:19:54.109Z,24.50
2023-06-03T17:24:54.011Z,24.30
2023-06-03T17:29:53.826Z,24.10
2023-06-03T17:34:52.209Z,23.90
2023-06-03T17:39:50.557Z,23.80
2023-06-03T17:44:52.073Z,23.50
2023-06-03T17:49:51.545Z,23.30
2023-06-03T17:54:49.629Z,23.20
2023-06-03T17:59:49.391Z,23.00
2023-06-03T18:04:47.753Z,22.80
2023-06-03T18:09:46.104Z,22.70
2023-06-03T18:14:44.457Z,22.40
2023-06-03T18:19:44.256Z,22.10
2023-06-03T18:24:42.471Z,21.80
2023-06-03T18:29:41.197Z,21.70
2023-06-03T18:34:44.228Z,21.60
2023-06-03T18:39:42.336Z,21.50
2023-06-03T18:44:40.614Z,21.30
2023-06-03T18:49:38.733Z,21.20
2023-06-03T18:54:38.448Z,21.10
2023-06-03T18:59:37.222Z,20.90
2023-06-03T19:04:35.319Z,20.80
2023-06-03T19:09:33.867Z,20.60
2023-06-03T19:14:33.680Z,20.40
2023-06-03T19:19:31.977Z,20.30
2023-06-03T19:24:30.019Z,20.20
2023-06-03T19:29:28.410Z,20.00
2023-06-03T19:34:28.070Z,19.90
2023-06-03T19:39:26.398Z,19.80
2023-06-03T19:44:24.698Z,19.60
2023-06-03T19:49:22.770Z,19.50
2023-06-03T19:54:22.440Z,19.50
2023-06-03T19:59:21.535Z,19.40
2023-06-03T20:04:19.662Z,19.20
2023-06-03T20:09:19.267Z,19.10
2023-06-03T20:14:19.423Z,19.00
2023-06-03T20:19:17.735Z,18.90
2023-06-03T20:24:17.089Z,18.80
2023-06-03T20:29:15.546Z,18.60
2023-06-03T20:34:15.171Z,18.50
2023-06-03T20:39:13.260Z,18.50
2023-06-03T20:44:11.713Z,18.30
2023-06-03T20:49:09.962Z,18.20
2023-06-03T20:54:09.607Z,18.10
2023-06-03T20:59:07.855Z,18.00
2023-06-03T21:04:06.214Z,18.00
2023-06-03T21:09:04.740Z,17.90
2023-06-03T21:14:04.392Z,17.80
2023-06-03T21:19:02.632Z,17.80
2023-06-03T21:24:01.862Z,17.70
2023-06-03T21:28:59.964Z,17.70
2023-06-03T21:34:00.159Z,17.70
2023-06-03T21:38:58.410Z,17.60
2023-06-03T21:43:56.564Z,17.50
2023-06-03T21:48:54.820Z,17.50
2023-06-03T21:53:58.008Z,17.40
2023-06-03T21:58:56.048Z,17.40
2023-06-03T22:03:55.666Z,17.30
2023-06-03T22:08:55.796Z,17.20
2023-06-03T22:13:53.849Z,17.10
2023-06-03T22:18:52.276Z,17.10
2023-06-03T22:23:50.662Z,17.00
2023-06-03T22:28:50.515Z,16.90
2023-06-03T22:33:48.909Z,16.90
2023-06-03T22:38:47.015Z,16.80
2023-06-03T22:43:45.451Z,16.70
2023-06-03T22:48:45.086Z,16.60
2023-06-03T22:53:43.184Z,16.50
2023-06-03T22:58:41.258Z,16.40
2023-06-03T23:03:39.857Z,16.30
2023-06-03T23:08:39.580Z,16.20
2023-06-03T23:13:37.726Z,16.10
2023-06-03T23:18:36.154Z,16.00
2023-06-03T23:23:34.452Z,15.90
2023-06-03T23:28:33.933Z,15.80
2023-06-03T23:33:32.202Z,15.80
2023-06-03T23:38:30.286Z,15.80
2023-06-03T23:43:28.508Z,15.70
2023-06-03T23:48:27.954Z,15.60
2023-06-03T23:53:26.517Z,15.60
2023-06-03T23:58:24.752Z,15.60
